Time;durP1;ratioP1;P1;durP2;ratioP2;P2;SDS_P1;SDS_P2;PMS_P1;PMS_P2;Temp;Humidity;BMP_temperature;BMP_pressure;BME280_temperature;BME280_humidity;BME280_pressure;Samples;Min_cycle;Max_cycle;Signal;HPM_P1;HPM_P2
2023/09/13 00:00:27;;;;;;;7.65;6.93;;;;;;;;;;5019411;28;20793;-71
2023/09/13 00:02:53;;;;;;;10.35;7.65;;;;;;;;;;5021894;28;20666;-71
2023/09/13 00:15:45;;;;;;;8.35;7.47;;;;;;;;;;5217610;23;20232;-70
2023/09/13 00:18:12;;;;;;;7.97;7.28;;;;;;;;;;5020116;28;20198;-70
2023/09/13 00:20:39;;;;;;;8.13;6.95;;;;;;;;;;5020009;28;20202;-69
2023/09/13 00:23:05;;;;;;;8.30;7.28;;;;;;;;;;5022992;28;20712;-70
2023/09/13 00:25:32;;;;;;;11.45;7.50;;;;;;;;;;5015177;28;20252;-70
2023/09/13 00:27:58;;;;;;;8.95;7.43;;;;;;;;;;5022364;28;20198;-70
2023/09/13 00:30:24;;;;;;;8.13;7.22;;;;;;;;;;5022904;28;20201;-70
2023/09/13 00:32:52;;;;;;;10.55;8.10;;;;;;;;;;5020923;28;20208;-71
2023/09/13 00:35:18;;;;;;;10.95;7.40;;;;;;;;;;5019066;28;20729;-71
2023/09/13 00:37:44;;;;;;;9.63;8.10;;;;;;;;;;5020811;28;20228;-71
2023/09/13 00:40:11;;;;;;;8.80;7.80;;;;;;;;;;5022953;28;20198;-70
2023/09/13 00:42:37;;;;;;;9.32;8.43;;;;;;;;;;5022918;28;20209;-70
2023/09/13 00:45:04;;;;;;;13.00;8.73;;;;;;;;;;5019210;28;20664;-70
2023/09/13 00:47:30;;;;;;;10.32;8.48;;;;;;;;;;5019120;28;20218;-70
2023/09/13 00:49:58;;;;;;;12.80;8.85;;;;;;;;;;5021965;28;20233;-70
2023/09/13 00:52:24;;;;;;;10.88;7.95;;;;;;;;;;5022943;28;20197;-70
2023/09/13 00:54:51;;;;;;;13.38;9.45;;;;;;;;;;5021035;28;20312;-70
2023/09/13 00:57:17;;;;;;;13.15;8.70;;;;;;;;;;5019388;28;20190;-70
2023/09/13 00:59:43;;;;;;;10.93;8.63;;;;;;;;;;5019498;28;20689;-70
2023/09/13 01:02:09;;;;;;;10.45;8.50;;;;;;;;;;5022724;28;20201;-70
2023/09/13 01:04:39;;;;;;;13.93;8.40;;;;;;;;;;5022680;28;20201;-70
2023/09/13 01:07:07;;;;;;;10.70;8.38;;;;;;;;;;5018869;28;20628;-70
2023/09/13 01:09:33;;;;;;;12.23;8.60;;;;;;;;;;5019327;28;20202;-70
2023/09/13 01:12:00;;;;;;;11.60;8.95;;;;;;;;;;5021765;28;20361;-70
2023/09/13 01:14:27;;;;;;;10.10;9.10;;;;;;;;;;5026143;28;20707;-70
2023/09/13 01:16:56;;;;;;;10.55;8.65;;;;;;;;;;5024092;28;20677;-70
2023/09/13 01:19:33;;;;;;;11.45;8.73;;;;;;;;;;5022682;28;20213;-70
2023/09/13 01:22:06;;;;;;;15.60;8.98;;;;;;;;;;5025175;28;20210;-70
2023/09/13 01:24:41;;;;;;;9.60;8.70;;;;;;;;;;5026043;28;20202;-70
2023/09/13 01:27:21;;;;;;;10.27;8.55;;;;;;;;;;5022115;28;20214;-70
2023/09/13 01:29:50;;;;;;;12.13;8.65;;;;;;;;;;5030762;28;20201;-70
2023/09/13 01:32:16;;;;;;;12.65;10.20;;;;;;;;;;5022457;28;20209;-70
2023/09/13 01:34:43;;;;;;;16.73;9.68;;;;;;;;;;5022411;28;20206;-70
2023/09/13 01:37:09;;;;;;;14.32;10.15;;;;;;;;;;5022066;28;20194;-70
2023/09/13 01:39:36;;;;;;;10.73;9.57;;;;;;;;;;5022400;28;20206;-70
2023/09/13 01:42:05;;;;;;;10.70;9.00;;;;;;;;;;5024824;28;20237;-70
2023/09/13 01:44:32;;;;;;;10.88;9.70;;;;;;;;;;5025631;28;20286;-70
2023/09/13 01:47:01;;;;;;;13.50;10.48;;;;;;;;;;5023551;28;20221;-71
2023/09/13 01:49:28;;;;;;;13.27;10.60;;;;;;;;;;5022122;28;20209;-71
2023/09/13 01:51:54;;;;;;;12.27;9.30;;;;;;;;;;5023155;28;20206;-71
2023/09/13 01:54:21;;;;;;;12.73;9.13;;;;;;;;;;5025237;28;20209;-71
2023/09/13 01:56:47;;;;;;;12.15;9.82;;;;;;;;;;5024710;28;20218;-71
2023/09/13 01:59:13;;;;;;;14.70;9.70;;;;;;;;;;5022012;28;20202;-71
2023/09/13 02:01:39;;;;;;;14.20;9.82;;;;;;;;;;5021750;28;20213;-71
2023/09/13 02:04:07;;;;;;;11.40;10.20;;;;;;;;;;5024344;28;20698;-71
2023/09/13 02:06:33;;;;;;;13.13;9.65;;;;;;;;;;5024630;28;20217;-71
2023/09/13 02:08:59;;;;;;;14.18;9.75;;;;;;;;;;5023081;28;20284;-71
2023/09/13 02:11:26;;;;;;;11.18;8.95;;;;;;;;;;5021969;28;20206;-71
2023/09/13 02:13:52;;;;;;;11.98;9.18;;;;;;;;;;5022274;28;20205;-71
2023/09/13 02:16:19;;;;;;;12.00;9.05;;;;;;;;;;5024716;28;20217;-71
2023/09/13 02:18:45;;;;;;;10.27;8.68;;;;;;;;;;5024840;28;20703;-71
2023/09/13 02:21:13;;;;;;;11.13;10.00;;;;;;;;;;5021257;28;20224;-71
2023/09/13 02:23:41;;;;;;;10.05;9.13;;;;;;;;;;5021142;28;20209;-71
2023/09/13 02:26:08;;;;;;;9.85;8.95;;;;;;;;;;5023304;28;20231;-71
2023/09/13 02:28:34;;;;;;;9.68;8.70;;;;;;;;;;5024860;28;20202;-71
2023/09/13 02:31:00;;;;;;;9.95;8.88;;;;;;;;;;5022923;28;20208;-71
2023/09/13 02:33:26;;;;;;;14.82;8.93;;;;;;;;;;5021587;28;20213;-71
2023/09/13 02:35:53;;;;;;;13.38;9.00;;;;;;;;;;5021369;28;20226;-71
2023/09/13 02:38:20;;;;;;;12.52;8.90;;;;;;;;;;5024721;28;20201;-71
2023/09/13 02:40:47;;;;;;;10.50;9.48;;;;;;;;;;5024663;28;20194;-71
2023/09/13 02:43:13;;;;;;;11.00;9.88;;;;;;;;;;5021133;28;20202;-71
2023/09/13 02:45:40;;;;;;;12.80;9.15;;;;;;;;;;5021301;28;20222;-71
2023/09/13 02:48:07;;;;;;;10.02;9.05;;;;;;;;;;5023049;28;20218;-71
2023/09/13 02:50:33;;;;;;;10.73;9.35;;;;;;;;;;5024151;28;20224;-71
2023/09/13 02:52:59;;;;;;;9.88;8.95;;;;;;;;;;5023082;28;20205;-70
2023/09/13 02:55:27;;;;;;;9.88;8.88;;;;;;;;;;5020632;28;20233;-70
2023/09/13 02:57:53;;;;;;;10.13;9.18;;;;;;;;;;5020813;28;20198;-70
2023/09/13 03:00:19;;;;;;;10.48;9.38;;;;;;;;;;5020782;28;20202;-70
2023/09/13 03:02:46;;;;;;;10.95;9.07;;;;;;;;;;5020775;28;20209;-70
2023/09/13 03:05:12;;;;;;;9.50;8.52;;;;;;;;;;5023089;28;20225;-70
2023/09/13 03:07:38;;;;;;;12.82;8.85;;;;;;;;;;5023808;28;20225;-70
2023/09/13 03:10:05;;;;;;;11.07;9.00;;;;;;;;;;5022293;28;20202;-70
2023/09/13 03:12:33;;;;;;;10.02;9.13;;;;;;;;;;5020592;28;20213;-71
2023/09/13 03:14:59;;;;;;;10.45;9.45;;;;;;;;;;5021201;28;20777;-71
2023/09/13 03:17:26;;;;;;;10.35;9.20;;;;;;;;;;5023812;28;20561;-71
2023/09/13 03:19:52;;;;;;;10.18;9.02;;;;;;;;;;5024589;28;20201;-71
2023/09/13 03:22:19;;;;;;;10.35;8.70;;;;;;;;;;5020622;28;20209;-71
2023/09/13 03:24:46;;;;;;;9.85;8.85;;;;;;;;;;5020439;28;20202;-71
2023/09/13 03:27:12;;;;;;;9.38;8.57;;;;;;;;;;5022289;28;20736;-71
2023/09/13 03:29:40;;;;;;;9.30;8.60;;;;;;;;;;5023605;28;20202;-71
2023/09/13 03:32:06;;;;;;;9.40;8.50;;;;;;;;;;5021822;28;20205;-71
2023/09/13 03:34:32;;;;;;;9.82;8.85;;;;;;;;;;5015205;28;20297;-71
2023/09/13 03:36:59;;;;;;;9.43;8.40;;;;;;;;;;5020226;28;20209;-71
2023/09/13 03:39:28;;;;;;;10.13;8.95;;;;;;;;;;5023560;28;20205;-71
2023/09/13 03:41:54;;;;;;;12.32;8.68;;;;;;;;;;5023440;28;20202;-70
2023/09/13 03:44:20;;;;;;;9.27;8.38;;;;;;;;;;5020217;28;20699;-70
2023/09/13 03:46:48;;;;;;;9.10;8.07;;;;;;;;;;5020100;28;20599;-70
2023/09/13 03:49:14;;;;;;;12.57;8.52;;;;;;;;;;5022627;28;20206;-70
2023/09/13 03:51:41;;;;;;;11.23;8.65;;;;;;;;;;5023531;28;20201;-70
2023/09/13 03:54:07;;;;;;;9.30;8.40;;;;;;;;;;5021666;28;20688;-70
2023/09/13 03:56:33;;;;;;;11.10;8.73;;;;;;;;;;5019458;28;20229;-70
2023/09/13 03:59:00;;;;;;;8.73;7.82;;;;;;;;;;5020109;28;20248;-70
2023/09/13 04:01:26;;;;;;;9.38;8.48;;;;;;;;;;5023140;28;20241;-70
2023/09/13 04:03:54;;;;;;;8.85;8.15;;;;;;;;;;5023360;28;20224;-70
2023/09/13 04:06:20;;;;;;;11.85;8.13;;;;;;;;;;5014556;28;20244;-70
2023/09/13 04:08:47;;;;;;;9.60;8.70;;;;;;;;;;5023437;28;20197;-70
2023/09/13 04:11:13;;;;;;;8.70;8.05;;;;;;;;;;5020848;28;20593;-69
2023/09/13 04:13:39;;;;;;;9.32;8.48;;;;;;;;;;5019634;28;20201;-69
2023/09/13 04:16:06;;;;;;;8.95;8.23;;;;;;;;;;5020113;28;20226;-69
2023/09/13 04:18:33;;;;;;;8.80;8.02;;;;;;;;;;5022962;28;20653;-69
2023/09/13 04:21:00;;;;;;;9.52;7.43;;;;;;;;;;5023149;28;20197;-69
2023/09/13 04:23:28;;;;;;;8.85;8.00;;;;;;;;;;5019822;28;20202;-70
2023/09/13 04:25:54;;;;;;;8.93;8.07;;;;;;;;;;5019371;28;20245;-70
2023/09/13 04:28:21;;;;;;;10.02;9.10;;;;;;;;;;5022478;28;20217;-70
2023/09/13 04:30:47;;;;;;;9.80;8.80;;;;;;;;;;5022984;28;20577;-70
2023/09/13 04:33:13;;;;;;;10.15;8.45;;;;;;;;;;5021122;28;20201;-70
2023/09/13 04:35:40;;;;;;;9.75;8.13;;;;;;;;;;5019176;28;20221;-69
2023/09/13 04:38:07;;;;;;;10.43;8.73;;;;;;;;;;5020578;28;20198;-69
2023/09/13 04:40:34;;;;;;;9.48;8.52;;;;;;;;;;5022662;28;20201;-69
2023/09/13 04:43:23;;;;;;;8.77;8.07;;;;;;;;;;5022907;28;20194;-69
2023/09/13 04:45:49;;;;;;;11.30;8.85;;;;;;;;;;5019232;28;20226;-69
2023/09/13 04:48:15;;;;;;;8.82;7.97;;;;;;;;;;5023145;28;20221;-69
2023/09/13 04:50:41;;;;;;;10.82;9.10;;;;;;;;;;5026553;28;20197;-69
2023/09/13 04:53:09;;;;;;;10.52;8.82;;;;;;;;;;5025599;28;20202;-69
2023/09/13 04:55:35;;;;;;;10.15;8.90;;;;;;;;;;5022617;28;20681;-69
2023/09/13 04:58:01;;;;;;;8.95;8.15;;;;;;;;;;5023141;28;20294;-69
2023/09/13 05:00:28;;;;;;;10.55;9.18;;;;;;;;;;5026454;28;20198;-69
2023/09/13 05:02:54;;;;;;;10.05;9.05;;;;;;;;;;5026391;28;20206;-69
2023/09/13 05:05:21;;;;;;;10.68;8.77;;;;;;;;;;5023474;28;20907;-69
2023/09/13 05:07:47;;;;;;;9.98;8.27;;;;;;;;;;5022675;28;20225;-69
2023/09/13 05:10:15;;;;;;;12.88;9.77;;;;;;;;;;5025122;28;20213;-69
2023/09/13 05:12:41;;;;;;;10.13;9.23;;;;;;;;;;5027351;28;20584;-69
2023/09/13 05:15:08;;;;;;;9.02;8.18;;;;;;;;;;5025354;28;20221;-69
2023/09/13 05:17:34;;;;;;;9.80;8.85;;;;;;;;;;5022530;28;20194;-69
2023/09/13 05:20:00;;;;;;;9.68;8.77;;;;;;;;;;5022687;28;20194;-69
2023/09/13 05:22:26;;;;;;;10.13;8.80;;;;;;;;;;5025239;28;20689;-69
2023/09/13 05:24:53;;;;;;;9.70;8.18;;;;;;;;;;5025634;28;20595;-69
2023/09/13 05:27:20;;;;;;;9.70;8.63;;;;;;;;;;5023749;28;20217;-69
2023/09/13 05:29:47;;;;;;;10.48;8.95;;;;;;;;;;5022779;28;20671;-69
2023/09/13 05:32:14;;;;;;;9.48;8.68;;;;;;;;;;5023787;28;20210;-69
2023/09/13 05:34:40;;;;;;;11.50;8.32;;;;;;;;;;5025738;28;20201;-69
2023/09/13 05:37:07;;;;;;;10.40;8.82;;;;;;;;;;5025546;28;20198;-69
2023/09/13 05:39:33;;;;;;;9.27;8.48;;;;;;;;;;5025619;28;20550;-69
2023/09/13 05:42:01;;;;;;;9.40;8.50;;;;;;;;;;5025931;28;20202;-69
2023/09/13 05:44:29;;;;;;;9.88;8.98;;;;;;;;;;5022598;28;20304;-69
2023/09/13 05:46:55;;;;;;;10.75;9.45;;;;;;;;;;5021848;28;20211;-69
2023/09/13 05:49:21;;;;;;;11.45;10.25;;;;;;;;;;5023866;28;20206;-69
2023/09/13 05:51:47;;;;;;;10.23;9.25;;;;;;;;;;5025382;28;20198;-69
2023/09/13 05:54:14;;;;;;;11.95;9.63;;;;;;;;;;5024599;28;20193;-69
2023/09/13 05:56:40;;;;;;;10.48;9.35;;;;;;;;;;5021818;28;20214;-69
2023/09/13 05:59:07;;;;;;;13.15;9.63;;;;;;;;;;5020634;28;20655;-69
2023/09/13 06:01:36;;;;;;;10.90;9.60;;;;;;;;;;5025077;28;20216;-69
2023/09/13 06:04:03;;;;;;;9.48;8.48;;;;;;;;;;5017908;28;20241;-69
2023/09/13 06:06:29;;;;;;;11.02;8.50;;;;;;;;;;5024230;28;20316;-69
2023/09/13 06:08:57;;;;;;;9.05;8.15;;;;;;;;;;5025043;28;20272;-69
2023/09/13 06:11:24;;;;;;;10.52;9.27;;;;;;;;;;5012604;28;20220;-70
2023/09/13 06:13:50;;;;;;;12.13;8.85;;;;;;;;;;5015085;28;20763;-70
2023/09/13 06:16:16;;;;;;;9.52;8.57;;;;;;;;;;5017508;28;20217;-70
2023/09/13 06:18:44;;;;;;;9.32;8.40;;;;;;;;;;5013255;28;20202;-70
2023/09/13 06:21:12;;;;;;;9.90;9.05;;;;;;;;;;5016035;28;20210;-70
2023/09/13 06:23:39;;;;;;;10.13;8.40;;;;;;;;;;5019538;28;20670;-70
2023/09/13 06:26:06;;;;;;;9.43;8.48;;;;;;;;;;5018901;28;20483;-70
2023/09/13 06:28:32;;;;;;;10.45;8.98;;;;;;;;;;5015995;28;20309;-70
2023/09/13 06:30:59;;;;;;;10.38;9.18;;;;;;;;;;5011345;28;20589;-68
2023/09/13 06:33:25;;;;;;;10.30;9.27;;;;;;;;;;5021431;28;20210;-71
2023/09/13 06:35:54;;;;;;;11.82;9.80;;;;;;;;;;5010809;28;20233;-70
2023/09/13 06:38:20;;;;;;;10.77;9.55;;;;;;;;;;5003644;28;20205;-70
2023/09/13 06:40:48;;;;;;;11.02;10.02;;;;;;;;;;5008606;28;20764;-71
2023/09/13 06:43:14;;;;;;;10.38;9.38;;;;;;;;;;5012470;28;20207;-70
2023/09/13 06:45:40;;;;;;;11.23;10.07;;;;;;;;;;5005560;28;20226;-70
2023/09/13 06:48:07;;;;;;;12.98;9.80;;;;;;;;;;5009981;28;20252;-71
2023/09/13 06:50:33;;;;;;;11.15;10.13;;;;;;;;;;5011589;28;20218;-71
2023/09/13 06:53:01;;;;;;;9.75;8.80;;;;;;;;;;5011635;28;20217;-70
2023/09/13 06:55:27;;;;;;;9.82;8.82;;;;;;;;;;5009427;28;20237;-70
2023/09/13 06:57:54;;;;;;;10.70;9.40;;;;;;;;;;5014888;28;20201;-72
2023/09/13 07:00:20;;;;;;;10.73;9.77;;;;;;;;;;5008055;28;20225;-71
2023/09/13 07:02:46;;;;;;;18.48;10.43;;;;;;;;;;5010455;28;20505;-73
2023/09/13 07:05:12;;;;;;;13.85;10.55;;;;;;;;;;5009622;28;20748;-68
2023/09/13 07:07:39;;;;;;;11.05;10.05;;;;;;;;;;5013409;28;20248;-69
2023/09/13 07:10:07;;;;;;;10.05;8.73;;;;;;;;;;5008951;28;20734;-68
2023/09/13 07:12:34;;;;;;;14.57;10.27;;;;;;;;;;5007871;28;20244;-68
2023/09/13 07:15:01;;;;;;;10.00;9.10;;;;;;;;;;5009898;28;20885;-67
2023/09/13 07:17:28;;;;;;;11.38;9.40;;;;;;;;;;5005307;28;20250;-69
2023/09/13 07:19:54;;;;;;;9.77;8.95;;;;;;;;;;5013912;28;20217;-68
2023/09/13 07:22:20;;;;;;;11.32;8.57;;;;;;;;;;5005319;28;20221;-68
2023/09/13 07:24:46;;;;;;;11.20;8.07;;;;;;;;;;5006860;28;20202;-72
2023/09/13 07:27:14;;;;;;;6.93;6.43;;;;;;;;;;5009110;28;20221;-69
2023/09/13 07:29:40;;;;;;;6.35;5.78;;;;;;;;;;5018871;28;20718;-70
2023/09/13 07:32:07;;;;;;;5.82;5.40;;;;;;;;;;5005684;28;20213;-66
2023/09/13 07:34:33;;;;;;;5.43;5.10;;;;;;;;;;5012969;28;20213;-68
2023/09/13 07:36:59;;;;;;;5.50;5.10;;;;;;;;;;5007402;28;20571;-67
2023/09/13 07:39:26;;;;;;;6.18;5.60;;;;;;;;;;5007002;28;20210;-68
2023/09/13 07:41:52;;;;;;;5.10;4.80;;;;;;;;;;5009640;28;20209;-69
2023/09/13 07:44:20;;;;;;;5.47;5.07;;;;;;;;;;5013121;28;20528;-72
2023/09/13 07:46:46;;;;;;;5.70;5.30;;;;;;;;;;5003817;28;20690;-70
2023/09/13 07:49:12;;;;;;;6.70;4.80;;;;;;;;;;5004485;28;20218;-71
2023/09/13 07:51:38;;;;;;;7.15;4.90;;;;;;;;;;5013464;28;20205;-70
2023/09/13 07:54:07;;;;;;;5.60;4.90;;;;;;;;;;5004858;28;20785;-67
2023/09/13 07:56:34;;;;;;;5.13;4.75;;;;;;;;;;5004324;28;20226;-72
2023/09/13 07:59:00;;;;;;;4.40;4.07;;;;;;;;;;5004266;28;20623;-70
2023/09/13 08:01:28;;;;;;;5.30;4.65;;;;;;;;;;5012545;28;20212;-70
2023/09/13 08:03:55;;;;;;;4.95;4.53;;;;;;;;;;5013065;28;20668;-71
2023/09/13 08:06:22;;;;;;;5.75;5.20;;;;;;;;;;5003692;28;20229;-71
2023/09/13 08:08:48;;;;;;;4.60;4.30;;;;;;;;;;5010862;28;20710;-73
2023/09/13 08:11:15;;;;;;;5.22;4.82;;;;;;;;;;5011945;28;20205;-72
2023/09/13 08:13:41;;;;;;;5.55;4.43;;;;;;;;;;5005400;28;20213;-70
2023/09/13 08:16:08;;;;;;;4.10;3.80;;;;;;;;;;5011491;28;20221;-71
2023/09/13 08:18:35;;;;;;;4.18;3.97;;;;;;;;;;5006291;28;20214;-69
2023/09/13 08:21:03;;;;;;;4.78;4.07;;;;;;;;;;5018867;28;20705;-69
2023/09/13 08:23:29;;;;;;;5.93;4.25;;;;;;;;;;5007333;28;20212;-72
2023/09/13 08:25:56;;;;;;;4.78;4.40;;;;;;;;;;5016775;28;20228;-74
2023/09/13 08:28:23;;;;;;;4.50;3.85;;;;;;;;;;5008868;28;20226;-74
2023/09/13 08:30:50;;;;;;;4.30;3.90;;;;;;;;;;5016468;28;20217;-74
2023/09/13 08:33:16;;;;;;;4.57;4.10;;;;;;;;;;5008357;28;20624;-74
2023/09/13 08:35:44;;;;;;;4.50;3.80;;;;;;;;;;5014192;28;20225;-74
2023/09/13 08:38:10;;;;;;;4.38;4.05;;;;;;;;;;5007533;28;20224;-71
2023/09/13 08:40:40;;;;;;;5.05;3.72;;;;;;;;;;5008226;28;20226;-74
2023/09/13 08:43:07;;;;;;;3.97;3.42;;;;;;;;;;5016459;28;20228;-74
2023/09/13 08:45:35;;;;;;;4.03;3.72;;;;;;;;;;5008928;28;20226;-71
2023/09/13 08:48:02;;;;;;;3.58;3.30;;;;;;;;;;5014742;28;20226;-74
2023/09/13 08:50:30;;;;;;;6.78;3.97;;;;;;;;;;5015744;28;20205;-72
2023/09/13 08:52:59;;;;;;;3.95;3.75;;;;;;;;;;5007401;28;20208;-69
2023/09/13 08:55:26;;;;;;;4.22;3.92;;;;;;;;;;5007442;28;20217;-71
2023/09/13 08:57:53;;;;;;;4.70;3.80;;;;;;;;;;5007845;28;20228;-74
2023/09/13 09:00:19;;;;;;;7.00;4.07;;;;;;;;;;5007247;28;20237;-71
2023/09/13 09:02:47;;;;;;;4.28;3.78;;;;;;;;;;5007982;28;20218;-75
2023/09/13 09:05:13;;;;;;;4.10;3.80;;;;;;;;;;5014208;28;20221;-72
2023/09/13 09:07:40;;;;;;;4.10;3.90;;;;;;;;;;5010960;28;20221;-72
2023/09/13 09:10:11;;;;;;;6.13;3.88;;;;;;;;;;5014171;28;20449;-71
2023/09/13 09:12:38;;;;;;;6.03;3.63;;;;;;;;;;5008772;28;20213;-73
2023/09/13 09:15:06;;;;;;;4.57;3.95;;;;;;;;;;5014294;28;20230;-74
2023/09/13 09:17:32;;;;;;;4.68;4.13;;;;;;;;;;5009704;28;20206;-72
2023/09/13 09:19:59;;;;;;;4.53;3.88;;;;;;;;;;5014975;28;20655;-73
2023/09/13 09:22:25;;;;;;;6.10;4.50;;;;;;;;;;5007291;28;20272;-74
2023/09/13 09:24:51;;;;;;;4.10;3.90;;;;;;;;;;5010447;28;20221;-72
2023/09/13 09:27:19;;;;;;;5.38;4.00;;;;;;;;;;5012442;28;20202;-71
2023/09/13 09:29:46;;;;;;;3.47;3.28;;;;;;;;;;5016887;28;20218;-72
2023/09/13 09:32:14;;;;;;;3.63;3.40;;;;;;;;;;5012142;28;20755;-71
2023/09/13 09:34:41;;;;;;;3.20;3.00;;;;;;;;;;5014885;28;20311;-75
2023/09/13 09:37:08;;;;;;;3.13;2.92;;;;;;;;;;5006623;28;20669;-73
2023/09/13 09:39:37;;;;;;;3.03;2.92;;;;;;;;;;5008045;28;20210;-74
2023/09/13 09:42:04;;;;;;;3.72;3.22;;;;;;;;;;5013211;28;20524;-72
2023/09/13 09:44:31;;;;;;;3.88;3.67;;;;;;;;;;5015423;28;20209;-72
2023/09/13 09:46:58;;;;;;;4.10;3.90;;;;;;;;;;5006486;28;20209;-73
2023/09/13 09:49:24;;;;;;;3.65;3.35;;;;;;;;;;5014385;28;20224;-72
2023/09/13 09:51:51;;;;;;;4.10;3.80;;;;;;;;;;5010320;28;20594;-73
2023/09/13 09:54:17;;;;;;;4.43;4.03;;;;;;;;;;5012041;28;20608;-72
2023/09/13 09:56:43;;;;;;;3.72;3.28;;;;;;;;;;5014935;28;20226;-73
2023/09/13 09:59:10;;;;;;;4.35;4.05;;;;;;;;;;5012672;28;20245;-71
2023/09/13 10:01:38;;;;;;;3.72;3.53;;;;;;;;;;5007960;28;20206;-70
2023/09/13 10:04:08;;;;;;;3.85;3.55;;;;;;;;;;5011654;28;20209;-70
2023/09/13 10:06:34;;;;;;;5.57;3.92;;;;;;;;;;5009068;28;20317;-70
2023/09/13 10:09:00;;;;;;;3.58;3.38;;;;;;;;;;5006393;28;20221;-70
2023/09/13 10:11:26;;;;;;;3.58;3.33;;;;;;;;;;5014241;28;20210;-69
2023/09/13 10:13:53;;;;;;;3.63;3.42;;;;;;;;;;5011500;28;20214;-70
2023/09/13 10:16:21;;;;;;;3.67;3.47;;;;;;;;;;5007655;28;20233;-70
2023/09/13 10:18:49;;;;;;;4.18;3.72;;;;;;;;;;5014626;28;20846;-72
2023/09/13 10:21:16;;;;;;;3.75;3.55;;;;;;;;;;5011816;28;20285;-74
2023/09/13 10:23:44;;;;;;;5.55;3.25;;;;;;;;;;5012611;28;20255;-71
2023/09/13 10:26:13;;;;;;;4.35;3.88;;;;;;;;;;5011441;28;20236;-74
2023/09/13 10:28:41;;;;;;;4.40;4.00;;;;;;;;;;5011043;28;20222;-73
2023/09/13 10:31:11;;;;;;;4.70;4.10;;;;;;;;;;5013131;28;20648;-74
2023/09/13 10:33:39;;;;;;;3.70;3.50;;;;;;;;;;5008166;28;20213;-73
2023/09/13 10:36:08;;;;;;;4.60;3.88;;;;;;;;;;5012610;28;20737;-72
2023/09/13 10:38:38;;;;;;;5.15;4.00;;;;;;;;;;5005768;28;20217;-72
2023/09/13 10:41:06;;;;;;;8.43;4.57;;;;;;;;;;5014619;28;20697;-70
2023/09/13 10:43:32;;;;;;;4.60;4.20;;;;;;;;;;5005516;28;20209;-72
2023/09/13 10:46:01;;;;;;;9.18;4.90;;;;;;;;;;5012678;28;20229;-73
2023/09/13 10:48:27;;;;;;;7.45;3.83;;;;;;;;;;5005736;28;20206;-73
2023/09/13 10:50:55;;;;;;;5.30;4.57;;;;;;;;;;5007716;28;20217;-72
2023/09/13 10:53:23;;;;;;;5.65;4.88;;;;;;;;;;5005711;28;20284;-73
2023/09/13 10:55:51;;;;;;;3.40;3.20;;;;;;;;;;5011252;28;20233;-72
2023/09/13 10:58:20;;;;;;;4.03;3.72;;;;;;;;;;5014157;28;20216;-72
2023/09/13 11:00:47;;;;;;;3.22;2.97;;;;;;;;;;5006908;28;20248;-72
2023/09/13 11:03:13;;;;;;;3.45;3.17;;;;;;;;;;5010592;28;20639;-72
2023/09/13 11:05:41;;;;;;;4.47;3.13;;;;;;;;;;5007758;28;20234;-73
2023/09/13 11:08:08;;;;;;;3.40;3.10;;;;;;;;;;5012850;28;20300;-72
2023/09/13 11:10:36;;;;;;;3.13;3.03;;;;;;;;;;5012355;28;20225;-71
2023/09/13 11:13:11;;;;;;;3.45;3.00;;;;;;;;;;5005194;28;20234;-70
2023/09/13 11:15:47;;;;;;;3.42;3.20;;;;;;;;;;5012962;28;20233;-70
2023/09/13 11:18:14;;;;;;;3.15;2.90;;;;;;;;;;5010335;28;20223;-71
2023/09/13 11:20:42;;;;;;;3.10;2.90;;;;;;;;;;5014653;28;20209;-71
2023/09/13 11:23:09;;;;;;;2.55;2.45;;;;;;;;;;5005657;28;20201;-72
2023/09/13 11:25:38;;;;;;;3.33;3.13;;;;;;;;;;5012691;28;20597;-71
2023/09/13 11:28:06;;;;;;;3.78;3.25;;;;;;;;;;5009608;28;20209;-70
2023/09/13 11:30:46;;;;;;;4.22;3.28;;;;;;;;;;5013053;28;20222;-70
2023/09/13 11:33:13;;;;;;;4.35;2.95;;;;;;;;;;5004991;28;20202;-69
2023/09/13 11:35:39;;;;;;;3.40;3.20;;;;;;;;;;5012307;28;20229;-70
2023/09/13 11:38:07;;;;;;;3.70;3.05;;;;;;;;;;5011412;28;20210;-72
2023/09/13 11:40:33;;;;;;;3.00;2.90;;;;;;;;;;5004607;28;20221;-71
2023/09/13 11:43:01;;;;;;;3.22;2.95;;;;;;;;;;5007083;28;20233;-71
2023/09/13 11:45:28;;;;;;;3.60;3.33;;;;;;;;;;5009485;28;20225;-71
2023/09/13 11:47:55;;;;;;;3.00;2.80;;;;;;;;;;5004372;28;20206;-71
2023/09/13 11:50:22;;;;;;;3.50;3.20;;;;;;;;;;5009874;28;20221;-69
2023/09/13 11:53:07;;;;;;;3.08;2.97;;;;;;;;;;5012642;28;20217;-74
2023/09/13 11:55:37;;;;;;;3.17;3.05;;;;;;;;;;5004907;28;20226;-72
2023/09/13 11:58:06;;;;;;;5.55;3.97;;;;;;;;;;5017800;28;20210;-71
2023/09/13 12:00:39;;;;;;;3.80;3.50;;;;;;;;;;5004515;28;20320;-70
2023/09/13 12:03:06;;;;;;;4.13;3.65;;;;;;;;;;5011406;28;20206;-71
2023/09/13 12:05:33;;;;;;;4.07;3.75;;;;;;;;;;5005935;28;20229;-73
2023/09/13 12:08:00;;;;;;;4.45;4.15;;;;;;;;;;5004139;28;20757;-73
2023/09/13 12:10:29;;;;;;;3.72;3.53;;;;;;;;;;5003778;28;20686;-73
2023/09/13 12:12:56;;;;;;;3.58;3.40;;;;;;;;;;5008391;28;20452;-73
2023/09/13 12:15:25;;;;;;;4.43;3.65;;;;;;;;;;5009147;28;20233;-73
2023/09/13 12:17:52;;;;;;;3.97;3.55;;;;;;;;;;5008225;28;20214;-73
2023/09/13 12:20:18;;;;;;;3.80;3.60;;;;;;;;;;5012148;28;20686;-73
2023/09/13 12:22:44;;;;;;;3.60;3.40;;;;;;;;;;5008809;28;20213;-73
2023/09/13 12:25:11;;;;;;;3.88;3.67;;;;;;;;;;5020717;28;20230;-72
2023/09/13 12:27:37;;;;;;;3.70;3.50;;;;;;;;;;5010918;28;20205;-73
2023/09/13 12:30:05;;;;;;;6.07;3.65;;;;;;;;;;5013853;28;20693;-73
2023/09/13 12:32:32;;;;;;;4.13;3.45;;;;;;;;;;5006038;28;20600;-73
2023/09/13 12:34:59;;;;;;;4.60;3.83;;;;;;;;;;5010413;28;20225;-72
2023/09/13 12:37:25;;;;;;;3.50;3.15;;;;;;;;;;5004080;28;20218;-72
2023/09/13 12:39:51;;;;;;;3.17;2.97;;;;;;;;;;5008683;28;20205;-73
2023/09/13 12:42:18;;;;;;;3.35;3.03;;;;;;;;;;5004140;28;20221;-72
2023/09/13 12:44:46;;;;;;;3.33;3.13;;;;;;;;;;5006616;28;20209;-71
2023/09/13 12:47:12;;;;;;;3.30;3.15;;;;;;;;;;5002887;28;20579;-71
2023/09/13 12:49:40;;;;;;;4.80;3.53;;;;;;;;;;5009238;28;20226;-71
2023/09/13 12:52:06;;;;;;;3.22;2.90;;;;;;;;;;5017593;28;20677;-71
2023/09/13 12:54:34;;;;;;;2.92;2.72;;;;;;;;;;5004523;28;20221;-71
2023/09/13 12:57:02;;;;;;;2.90;2.80;;;;;;;;;;5003882;28;20214;-71
2023/09/13 12:59:41;;;;;;;3.15;2.83;;;;;;;;;;5012759;28;20230;-73
2023/09/13 13:02:12;;;;;;;3.03;2.78;;;;;;;;;;5013305;28;20301;-71
2023/09/13 13:04:40;;;;;;;3.25;2.47;;;;;;;;;;5012484;28;20214;-71
2023/09/13 13:07:06;;;;;;;4.03;3.05;;;;;;;;;;5009215;28;20332;-71
2023/09/13 13:09:32;;;;;;;3.30;3.05;;;;;;;;;;5008877;28;20229;-71
2023/09/13 13:11:59;;;;;;;3.47;3.00;;;;;;;;;;5011409;28;20217;-72
2023/09/13 13:14:26;;;;;;;4.60;2.90;;;;;;;;;;5015069;28;20601;-72
2023/09/13 13:16:53;;;;;;;3.30;3.05;;;;;;;;;;5007630;28;20238;-71
2023/09/13 13:19:26;;;;;;;3.85;3.50;;;;;;;;;;5015905;28;20218;-71
2023/09/13 13:21:54;;;;;;;3.60;3.30;;;;;;;;;;5007089;28;20214;-71
2023/09/13 13:24:20;;;;;;;3.53;3.17;;;;;;;;;;5015575;28;20213;-71
2023/09/13 13:26:46;;;;;;;3.17;2.95;;;;;;;;;;5007931;28;20226;-70
2023/09/13 13:29:13;;;;;;;4.57;3.17;;;;;;;;;;5011281;28;20249;-71
2023/09/13 13:31:39;;;;;;;3.30;3.05;;;;;;;;;;5015809;28;20209;-69
2023/09/13 13:34:05;;;;;;;3.42;3.03;;;;;;;;;;5015576;28;20213;-69
2023/09/13 13:36:32;;;;;;;5.55;2.97;;;;;;;;;;5017491;28;20232;-69
2023/09/13 13:38:59;;;;;;;2.72;2.50;;;;;;;;;;5010874;28;20701;-68
2023/09/13 13:41:26;;;;;;;3.13;2.90;;;;;;;;;;5007086;28;20221;-69
2023/09/13 13:43:52;;;;;;;3.40;3.20;;;;;;;;;;5006744;28;20296;-69
2023/09/13 13:46:19;;;;;;;3.28;2.97;;;;;;;;;;5015124;28;20225;-69
2023/09/13 13:48:45;;;;;;;3.75;3.45;;;;;;;;;;5010606;28;20512;-69
2023/09/13 13:51:12;;;;;;;4.65;3.30;;;;;;;;;;5013638;28;20232;-68
2023/09/13 13:53:39;;;;;;;5.05;3.10;;;;;;;;;;5006800;28;20232;-69
2023/09/13 13:56:06;;;;;;;3.70;3.05;;;;;;;;;;5010989;28;20740;-72
2023/09/13 13:58:33;;;;;;;3.15;3.05;;;;;;;;;;5013285;28;20220;-73
2023/09/13 14:01:03;;;;;;;3.33;3.10;;;;;;;;;;5009738;28;20217;-70
2023/09/13 14:03:29;;;;;;;3.03;2.83;;;;;;;;;;5006326;28;20206;-70
2023/09/13 14:05:55;;;;;;;3.53;3.33;;;;;;;;;;5006298;28;20436;-69
2023/09/13 14:08:22;;;;;;;3.17;2.97;;;;;;;;;;5010070;28;20216;-70
2023/09/13 14:10:49;;;;;;;3.10;3.00;;;;;;;;;;5012630;28;20240;-71
2023/09/13 14:13:18;;;;;;;3.05;2.85;;;;;;;;;;5015140;28;20209;-70
2023/09/13 14:15:45;;;;;;;3.28;3.03;;;;;;;;;;5006160;28;20230;-67
2023/09/13 14:18:11;;;;;;;2.83;2.58;;;;;;;;;;5016138;28;20686;-68
2023/09/13 14:20:41;;;;;;;3.20;2.90;;;;;;;;;;5011220;28;20212;-68
2023/09/13 14:23:07;;;;;;;3.45;2.88;;;;;;;;;;5016377;28;20228;-68
2023/09/13 14:25:33;;;;;;;2.83;2.63;;;;;;;;;;5010500;28;20739;-71
2023/09/13 14:28:00;;;;;;;4.65;2.78;;;;;;;;;;5009736;28;20206;-71
2023/09/13 14:30:28;;;;;;;2.45;2.40;;;;;;;;;;5008783;28;20272;-72
2023/09/13 14:32:54;;;;;;;2.88;2.70;;;;;;;;;;5014666;28;20213;-72
2023/09/13 14:35:20;;;;;;;2.92;2.75;;;;;;;;;;5008945;28;20224;-70
2023/09/13 14:37:47;;;;;;;3.15;2.67;;;;;;;;;;5012207;28;20214;-73
2023/09/13 14:40:13;;;;;;;2.35;2.22;;;;;;;;;;5008135;28;20206;-69
2023/09/13 14:42:39;;;;;;;4.13;2.50;;;;;;;;;;5010313;28;20206;-70
2023/09/13 14:45:06;;;;;;;2.60;2.50;;;;;;;;;;5013588;28;20225;-71
2023/09/13 14:47:34;;;;;;;2.80;2.65;;;;;;;;;;5005837;28;20206;-67